This is the latest recevied weather packets stored in our database for station/object N7NKE. If no packets are shown the sender has not sent any weather packets the latest 10 day(s).
| Time | Temp. | Humidity | Pressure | Rain* | Wind** | Luminosity | Snow |
|---|---|---|---|---|---|---|---|
| 1777439405 | 9.44° C | 75% | 1024.1 hPa | 0 mm | - | 0 W/m² | - |
| 1777438505 | 9.44° C | 76% | 1024 hPa | 0 mm | - | 0 W/m² | - |
| 1777438205 | 9.44° C | 76% | 1024 hPa | 0 mm | - | 0 W/m² | - |
| 1777436405 | 9.44° C | 76% | 1023.8 hPa | 0 mm | - | 0 W/m² | - |
| 1777434006 | 10° C | 76% | 1023.5 hPa | 0 mm | - | 0 W/m² | - |
| 1777433105 | 10.56° C | 74% | 1023.2 hPa | 0 mm | - | 0 W/m² | - |
| 1777432805 | 11.11° C | 73% | 1023.2 hPa | 0 mm | - | 0 W/m² | - |
| 1777432206 | 11.11° C | 72% | 1023.1 hPa | 0 mm | - | 0 W/m² | - |
| 1777430405 | 12.22° C | 67% | 1022.9 hPa | 0 mm | - | 16 W/m² | - |
| 1777428605 | 12.78° C | 63% | 1022.8 hPa | 0 mm | - | 49 W/m² | - |
| 1777424105 | 13.89° C | 58% | 1022.9 hPa | 0 mm | - | 127 W/m² | - |
| 1777420205 | 14.44° C | 58% | 1023 hPa | 0 mm | - | 178 W/m² | - |
| 1777419006 | 14.44° C | 59% | 1023 hPa | 0 mm | - | 271 W/m² | - |
| 1777418705 | 13.89° C | 56% | 1023 hPa | 0 mm | - | 239 W/m² | - |
| 1777418406 | 14.44° C | 57% | 1023 hPa | 0 mm | - | 246 W/m² | - |
| 1777417505 | 13.89° C | 57% | 1023 hPa | 0 mm | - | 255 W/m² | - |
| 1777415705 | 14.44° C | 54% | 1023.2 hPa | 0 mm | - | 269 W/m² | - |
| 1777413305 | 14.44° C | 56% | 1023.4 hPa | 0 mm | - | 329 W/m² | - |
| 1777410305 | 14.44° C | 55% | 1023.7 hPa | 0 mm | - | 274 W/m² | - |
| 1777409405 | 14.44° C | 55% | 1023.8 hPa | 0 mm | - | 246 W/m² | - |
| 1777409105 | 14.44° C | 57% | 1023.7 hPa | 0 mm | - | 302 W/m² | - |
| 1777407005 | 13.89° C | 60% | 1023.7 hPa | 0 mm | - | 323 W/m² | - |
| 1777406105 | 13.33° C | 62% | 1023.9 hPa | 0 mm | - | 301 W/m² | - |
| 1777404305 | 13.33° C | 66% | 1023.9 hPa | 0 mm | - | 237 W/m² | - |
| 1777398305 | 11.67° C | 75% | 1023.9 hPa | 0 mm | - | 163 W/m² | - |
* Rain latest hour (hover to see other rain measurements)
** Current wind speed in m/s (hover to see current wind gust speed)